Time;durP1;ratioP1;P1;durP2;ratioP2;P2;SDS_P1;SDS_P2;PMS_P1;PMS_P2;Temp;Humidity;BMP_temperature;BMP_pressure;BME280_temperature;BME280_humidity;BME280_pressure;Samples;Min_cycle;Max_cycle;Signal;HPM_P1;HPM_P2
2022/08/04 00:01:45;;;;;;;8.40;2.78;;;22.80;55.10;;;19.25;72.75;95433.00;4914412;29;20047;-44
2022/08/04 00:04:42;;;;;;;3.20;2.65;;;22.80;55.00;;;19.19;73.02;95433.16;4913886;29;20027;-43
2022/08/04 00:07:30;;;;;;;5.38;2.85;;;22.80;55.20;;;19.14;73.30;95430.63;4927120;29;20054;-43
2022/08/04 00:10:05;;;;;;;4.80;2.70;;;22.70;55.20;;;19.10;73.58;95431.59;4929334;29;20720;-43
2022/08/04 00:12:42;;;;;;;4.85;2.70;;;22.70;55.30;;;19.08;73.77;95423.03;4928317;29;20039;-48
2022/08/04 00:15:18;;;;;;;3.17;2.88;;;22.70;55.50;;;19.04;73.86;95427.50;4928468;29;20039;-43
2022/08/04 00:18:08;;;;;;;3.90;2.80;;;22.60;55.60;;;19.00;73.87;95427.34;4928893;29;20027;-42
2022/08/04 00:20:41;;;;;;;5.68;2.85;;;22.60;55.70;;;18.95;73.90;95427.50;4914200;29;20024;-42
2022/08/04 00:23:17;;;;;;;8.52;2.97;;;22.60;55.70;;;18.93;74.24;95429.75;4928103;29;20035;-44
2022/08/04 00:25:44;;;;;;;3.72;3.00;;;22.50;55.80;;;18.89;74.36;95420.69;4928938;29;20550;-43
2022/08/04 00:28:14;;;;;;;3.83;2.58;;;22.50;55.70;;;18.89;74.37;95420.69;4912859;29;20028;-44
2022/08/04 00:30:51;;;;;;;4.70;2.90;;;22.50;56.00;;;18.89;74.18;95420.69;4913019;29;20024;-45
2022/08/04 00:33:26;;;;;;;5.47;3.33;;;22.50;56.30;;;18.86;74.33;95419.41;4927902;29;20039;-43
2022/08/04 00:35:55;;;;;;;5.15;3.20;;;22.50;56.30;;;18.89;74.25;95420.69;4928615;29;20023;-45
2022/08/04 00:38:23;;;;;;;3.22;2.92;;;22.40;56.20;;;18.91;74.44;95432.75;4928589;29;20038;-43
2022/08/04 00:42:12;;;;;;;5.43;2.90;;;22.40;56.30;;;18.89;74.15;95437.66;4928846;29;20060;-42
2022/08/04 00:45:36;;;;;;;3.33;2.80;;;22.50;56.20;;;18.84;74.70;95435.16;4873891;29;20055;-43
2022/08/04 00:49:17;;;;;;;4.90;3.13;;;22.50;56.20;;;18.76;74.95;95433.25;4928441;29;20036;-45
2022/08/04 00:52:18;;;;;;;4.03;3.20;;;22.40;56.20;;;18.73;74.85;95436.59;4912613;29;20058;-42
2022/08/04 00:55:43;;;;;;;7.07;2.90;;;22.40;56.30;;;18.67;74.84;95435.94;4925999;29;20030;-43
2022/08/04 00:59:06;;;;;;;3.08;2.70;;;22.30;56.20;;;18.65;75.03;95443.56;4926381;29;20387;-42
2022/08/04 01:01:54;;;;;;;6.07;3.17;;;22.30;56.50;;;18.61;75.20;95434.50;4914015;29;20468;-42
2022/08/04 01:04:49;;;;;;;4.30;2.83;;;22.20;56.20;;;18.57;75.82;95440.88;4912565;29;20024;-45
2022/08/04 01:08:40;;;;;;;4.65;2.92;;;22.20;56.60;;;18.58;75.28;95427.06;4913775;29;20050;-44
2022/08/04 01:11:53;;;;;;;8.05;3.20;;;22.20;56.60;;;18.56;75.50;95429.28;4912163;29;20036;-48
2022/08/04 01:15:06;;;;;;;3.10;2.67;;;22.10;56.60;;;18.53;75.39;95427.22;4913659;29;20453;-44
2022/08/04 01:18:54;;;;;;;5.57;3.13;;;22.10;56.70;;;18.52;75.74;95424.84;4913950;29;20043;-44
2022/08/04 01:22:15;;;;;;;4.60;3.25;;;22.10;56.70;;;18.49;75.40;95427.06;4900351;29;20139;-43
2022/08/04 01:25:44;;;;;;;3.10;2.80;;;22.10;56.80;;;18.45;75.03;95431.50;4931621;29;20410;-45
2022/08/04 01:29:10;;;;;;;3.67;2.75;;;22.10;56.90;;;18.46;75.29;95435.81;4917182;29;20027;-43
2022/08/04 01:32:25;;;;;;;3.28;2.97;;;22.10;56.80;;;18.45;75.56;95433.41;4917141;29;20502;-47
2022/08/04 01:35:21;;;;;;;5.22;3.05;;;22.10;57.00;;;18.43;75.62;95435.66;4901716;29;20043;-43
2022/08/04 01:38:29;;;;;;;5.13;2.80;;;22.00;57.00;;;18.39;75.80;95434.69;4915656;29;20114;-43
2022/08/04 01:41:08;;;;;;;3.67;3.30;;;22.00;57.70;;;18.34;76.02;95427.56;4906360;29;20024;-42
2022/08/04 01:43:45;;;;;;;3.42;3.13;;;22.00;57.20;;;18.33;75.88;95430.56;4915233;29;20035;-44
2022/08/04 01:46:16;;;;;;;4.70;3.28;;;22.00;57.20;;;18.30;76.29;95428.50;4935221;29;20545;-48
2022/08/04 01:48:52;;;;;;;3.70;3.20;;;22.00;57.20;;;18.25;76.51;95437.53;4934500;29;20517;-42
2022/08/04 01:51:23;;;;;;;3.22;2.92;;;21.90;57.40;;;18.18;77.24;95421.06;4934529;29;20027;-47
2022/08/04 01:53:54;;;;;;;4.63;3.05;;;21.90;57.40;;;18.10;77.42;95424.53;4934040;29;20157;-43
2022/08/04 01:56:23;;;;;;;6.35;3.55;;;21.80;57.50;;;18.10;77.31;95416.44;4933769;29;20027;-42
2022/08/04 01:58:49;;;;;;;6.85;3.05;;;21.80;57.60;;;18.09;77.21;95426.44;4934368;29;20019;-46
2022/08/04 02:01:15;;;;;;;3.63;2.85;;;21.80;57.70;;;18.07;77.60;95417.06;4933897;29;20069;-43
2022/08/04 02:03:47;;;;;;;4.10;2.88;;;21.80;58.40;;;18.04;77.23;95426.56;4933712;29;20483;-43
2022/08/04 02:07:06;;;;;;;3.95;3.03;;;21.80;58.70;;;18.04;77.43;95435.44;4934265;29;20545;-43
2022/08/04 02:10:28;;;;;;;4.50;3.38;;;21.70;58.10;;;18.01;77.77;95428.00;4912617;29;20039;-43
2022/08/04 02:14:05;;;;;;;4.78;3.08;;;21.70;58.20;;;17.98;78.06;95427.84;4899568;29;20049;-43
2022/08/04 02:16:52;;;;;;;3.92;3.42;;;21.70;58.10;;;17.94;78.38;95432.28;4935345;29;20653;-43
2022/08/04 02:20:28;;;;;;;5.10;3.03;;;21.60;58.20;;;17.89;78.70;95433.22;4935160;29;20069;-43
2022/08/04 02:23:21;;;;;;;4.32;3.42;;;21.60;58.20;;;17.88;78.35;95425.44;4916113;29;20502;-45
2022/08/04 02:26:14;;;;;;;4.68;3.70;;;21.60;58.30;;;17.85;78.29;95426.88;4932802;29;20031;-43
2022/08/04 02:29:15;;;;;;;;;;;21.60;58.40;;;17.83;78.37;95428.28;4934317;29;20390;-42
2022/08/04 02:32:10;;;;;;;4.30;2.85;;;21.50;57.70;;;17.77;78.25;95430.34;4933916;29;20381;-42
2022/08/04 02:35:32;;;;;;;5.65;3.30;;;21.50;58.10;;;17.71;78.63;95432.38;4933715;29;20549;-46
2022/08/04 02:38:53;;;;;;;5.60;3.03;;;21.50;58.30;;;17.66;79.68;95429.03;4933262;29;20033;-43
2022/08/04 02:41:26;;;;;;;4.13;3.03;;;21.40;58.30;;;17.67;79.30;95426.00;4934877;29;20092;-44
2022/08/04 02:44:01;;;;;;;5.20;3.25;;;21.40;58.50;;;17.69;79.54;95425.69;4934157;29;20035;-44
2022/08/04 02:46:33;;;;;;;5.53;3.00;;;21.40;58.70;;;17.72;79.34;95427.78;4933400;29;20569;-50
2022/08/04 02:49:09;;;;;;;4.93;3.40;;;21.40;58.80;;;17.75;78.86;95419.06;4934442;29;20039;-48
2022/08/04 02:51:41;;;;;;;8.88;3.28;;;21.40;59.00;;;17.78;79.00;95423.84;4917254;29;20038;-50
2022/08/04 02:54:08;;;;;;;6.95;3.53;;;21.40;59.00;;;17.82;78.43;95419.41;4932971;29;20019;-46
2022/08/04 02:56:39;;;;;;;4.82;3.22;;;21.40;58.90;;;17.82;78.58;95419.41;4934299;29;20081;-42
2022/08/04 02:59:12;;;;;;;5.75;3.30;;;21.40;59.10;;;17.81;78.87;95420.53;4933415;29;20102;-44
2022/08/04 03:01:41;;;;;;;4.45;3.67;;;21.40;59.20;;;17.77;78.91;95420.38;4917113;29;20158;-44
2022/08/04 03:04:30;;;;;;;3.83;3.47;;;21.40;59.10;;;17.73;79.17;95416.66;4932810;29;20118;-48
2022/08/04 03:07:46;;;;;;;7.32;3.30;;;21.40;59.30;;;17.71;79.48;95418.91;4932734;29;20092;-43
2022/08/04 03:11:09;;;;;;;6.30;3.22;;;21.40;59.20;;;17.68;79.44;95414.13;4933076;29;20057;-43
2022/08/04 03:14:38;;;;;;;6.05;3.83;;;21.40;59.20;;;17.66;79.54;95423.63;4932614;29;20023;-42
2022/08/04 03:18:26;;;;;;;4.03;3.60;;;21.40;59.20;;;17.62;79.96;95418.09;4932911;29;20127;-43
2022/08/04 03:21:39;;;;;;;5.60;3.55;;;21.30;59.20;;;17.55;80.56;95417.75;4933075;29;20033;-48
2022/08/04 03:24:54;;;;;;;7.50;3.80;;;21.30;59.30;;;17.54;80.28;95427.72;4932608;29;20090;-42
2022/08/04 03:27:56;;;;;;;4.65;3.53;;;21.30;59.50;;;17.53;80.75;95417.25;4933933;29;20081;-42
2022/08/04 03:31:06;;;;;;;3.70;3.30;;;21.20;59.60;;;17.54;80.53;95424.22;4933675;29;20034;-46
2022/08/04 03:34:52;;;;;;;3.85;2.88;;;21.20;59.60;;;17.54;80.57;95427.72;4933475;29;20194;-48
2022/08/04 03:38:15;;;;;;;5.55;3.97;;;21.20;59.70;;;17.53;80.39;95425.34;4933285;29;20494;-42
2022/08/04 03:41:47;;;;;;;4.50;3.58;;;21.20;59.70;;;17.50;80.48;95426.75;4887807;29;20439;-44
2022/08/04 03:44:52;;;;;;;4.15;3.25;;;21.20;59.70;;;17.47;81.23;95426.59;4840202;29;20057;-44
2022/08/04 03:48:29;;;;;;;5.70;3.55;;;21.20;59.80;;;17.43;81.29;95422.94;4923255;29;20034;-44
2022/08/04 03:54:55;;;;;;;4.00;3.60;;;21.10;59.80;;;17.36;81.69;95426.09;4927570;29;20506;-43
2022/08/04 03:57:39;;;;;;;7.30;3.47;;;21.10;60.00;;;17.37;81.77;95426.88;4932206;29;20097;-42
2022/08/04 04:00:14;;;;;;;4.20;3.80;;;21.10;60.30;;;17.35;81.72;95416.41;4932354;29;20027;-42
2022/08/04 04:03:40;;;;;;;7.10;3.97;;;21.10;60.40;;;17.35;81.57;95425.28;4931541;29;20081;-42
2022/08/04 04:06:36;;;;;;;4.20;3.78;;;21.00;60.40;;;17.35;81.48;95432.56;4933137;29;20023;-50
2022/08/04 04:10:02;;;;;;;3.65;3.30;;;21.10;60.40;;;17.37;81.46;95426.88;4933241;29;20034;-49
2022/08/04 04:13:14;;;;;;;6.00;3.50;;;21.10;60.50;;;17.35;81.44;95427.16;4925258;29;20062;-43
2022/08/04 04:16:55;;;;;;;4.93;3.78;;;21.10;60.30;;;17.32;81.79;95433.97;4932189;29;20381;-47
2022/08/04 04:20:09;;;;;;;5.07;3.47;;;21.10;60.40;;;17.27;82.59;95438.72;4915832;29;20034;-43
2022/08/04 04:23:32;;;;;;;7.43;3.60;;;21.00;60.40;;;17.28;82.50;95441.09;4931451;29;20507;-42
2022/08/04 04:27:02;;;;;;;4.65;3.50;;;21.00;60.50;;;17.27;82.59;95447.59;4933299;29;20058;-44
2022/08/04 04:29:40;;;;;;;5.75;3.85;;;21.00;60.40;;;17.32;82.23;95444.72;4903060;29;20454;-44
2022/08/04 04:32:43;;;;;;;5.60;3.90;;;21.00;60.60;;;17.36;81.84;95450.31;4931411;29;20126;-48
2022/08/04 04:36:08;;;;;;;4.10;3.70;;;21.10;60.80;;;17.34;82.07;95453.31;4932762;29;20093;-44
2022/08/04 04:39:44;;;;;;;6.53;3.72;;;21.10;60.50;;;17.33;82.38;95461.69;4932532;29;20027;-43
2022/08/04 04:42:46;;;;;;;3.95;3.45;;;21.10;60.60;;;17.32;82.55;95458.19;4933596;29;20031;-42
2022/08/04 04:45:42;;;;;;;5.45;3.88;;;21.10;60.80;;;17.29;83.25;95455.34;4882905;29;20051;-44
2022/08/04 04:48:40;;;;;;;6.53;4.15;;;21.10;60.90;;;17.41;83.01;95452.84;4931842;29;20026;-48
2022/08/04 04:51:27;;;;;;;4.65;4.10;;;21.10;61.00;;;17.71;82.57;95459.31;4932992;29;20055;-48
2022/08/04 04:54:43;;;;;;;7.25;3.78;;;21.30;61.10;;;18.09;80.90;95461.47;4933204;29;20082;-44
2022/08/04 04:57:28;;;;;;;5.88;3.67;;;21.50;61.00;;;18.44;79.08;95466.88;4920792;29;20062;-44
2022/08/04 05:00:08;;;;;;;3.90;3.45;;;21.70;60.70;;;18.76;78.03;95464.84;4908925;28;20023;-46
2022/08/04 05:03:52;;;;;;;5.85;3.55;;;21.90;60.50;;;19.17;76.80;95462.38;4935227;29;20537;-48
2022/08/04 05:07:21;;;;;;;7.70;4.05;;;22.10;60.20;;;19.68;75.16;95470.66;4888218;29;20039;-44
2022/08/04 05:10:30;;;;;;;5.53;3.88;;;22.50;59.80;;;19.97;74.48;95474.47;4875543;29;20067;-47
2022/08/04 05:13:52;;;;;;;4.60;3.70;;;22.80;60.20;;;20.20;73.59;95473.06;4895974;29;20511;-44
2022/08/04 05:16:49;;;;;;;5.15;3.55;;;23.10;59.00;;;20.45;72.44;95474.00;4889975;29;20499;-44
2022/08/04 05:19:42;;;;;;;8.23;3.80;;;23.40;58.70;;;20.73;72.25;95471.56;4881045;29;20035;-47
2022/08/04 05:22:22;;;;;;;5.78;4.18;;;23.70;58.50;;;21.06;70.88;95473.50;4880364;29;20742;-45
2022/08/04 05:25:04;;;;;;;6.20;3.83;;;24.00;58.20;;;21.38;70.30;95482.75;4895698;29;20058;-47
2022/08/04 05:27:45;;;;;;;;;;;24.30;57.90;;;21.69;70.00;95486.88;4880648;29;20487;-47
2022/08/04 05:30:13;;;;;;;27.58;4.75;;;24.50;57.30;;;22.01;68.46;95485.16;4895931;29;19911;-45
2022/08/04 05:33:02;;;;;;;14.00;4.45;;;24.90;57.10;;;22.39;66.82;95484.81;4895473;29;20028;-47
2022/08/04 05:35:57;;;;;;;23.52;4.15;;;25.30;56.80;;;22.83;65.81;95489.53;4880775;29;20028;-47
2022/08/04 05:38:33;;;;;;;11.00;4.30;;;25.60;56.40;;;23.17;64.45;95481.97;4924489;29;20090;-51
2022/08/04 05:41:02;;;;;;;13.57;3.67;;;26.00;55.90;;;23.41;63.50;95494.59;4934412;29;20031;-47
2022/08/04 05:43:30;;;;;;;6.00;3.95;;;26.30;55.40;;;23.74;60.92;95495.09;4934448;29;20499;-46
2022/08/04 05:46:04;;;;;;;9.02;4.20;;;26.60;54.70;;;23.90;60.09;95486.16;4935497;29;20091;-48
2022/08/04 05:48:37;;;;;;;9.02;5.47;;;26.90;54.00;;;23.93;59.16;95493.63;4934129;29;20027;-46
2022/08/04 05:51:07;;;;;;;10.10;4.82;;;27.20;53.30;;;23.98;58.29;95496.06;4934334;29;20035;-48
2022/08/04 05:53:34;;;;;;;7.10;3.97;;;27.40;52.60;;;24.12;57.75;95496.41;4934473;29;20031;-47
2022/08/04 05:56:04;;;;;;;4.35;3.92;;;27.60;52.00;;;24.28;56.72;95501.03;4921581;29;20023;-47
2022/08/04 05:58:31;;;;;;;5.80;4.20;;;27.80;51.40;;;24.38;56.67;95493.13;4917785;29;20023;-48
2022/08/04 06:01:11;;;;;;;4.22;3.83;;;28.00;50.90;;;24.54;55.47;95492.28;4918026;29;20499;-52
2022/08/04 06:03:40;;;;;;;4.80;4.20;;;28.30;50.40;;;24.79;55.30;95501.78;4931765;29;20162;-46
2022/08/04 06:06:09;;;;;;;6.03;3.92;;;28.50;49.80;;;25.06;54.78;95499.97;4933513;29;20382;-52
2022/08/04 06:08:35;;;;;;;4.85;3.50;;;28.70;49.40;;;25.45;53.71;95501.91;4933611;29;20023;-50
2022/08/04 06:11:10;;;;;;;4.65;3.83;;;29.00;49.10;;;25.81;52.43;95508.78;4934087;29;20038;-52
2022/08/04 06:13:46;;;;;;;5.43;4.20;;;29.20;48.60;;;26.11;51.54;95506.19;4933956;29;20035;-50
2022/08/04 06:16:23;;;;;;;4.40;4.00;;;29.50;48.10;;;26.43;50.66;95506.66;4933852;29;20128;-49
2022/08/04 06:18:56;;;;;;;6.43;4.60;;;29.80;47.60;;;26.73;49.87;95505.91;4934213;29;20646;-46
2022/08/04 06:21:27;;;;;;;6.53;4.07;;;30.00;46.90;;;26.99;48.52;95500.38;4934171;29;20105;-45
2022/08/04 06:23:57;;;;;;;5.40;4.30;;;30.30;46.30;;;27.30;48.05;95505.84;4933745;29;20031;-49
2022/08/04 06:26:35;;;;;;;4.90;4.18;;;30.70;45.70;;;27.54;47.10;95513.50;4933478;29;20030;-46
2022/08/04 06:29:03;;;;;;;4.57;4.15;;;31.00;45.10;;;27.76;46.65;95508.25;4933982;29;20027;-48
2022/08/04 06:31:45;;;;;;;7.35;3.92;;;31.30;44.60;;;28.00;45.58;95517.88;4933534;29;20117;-47
2022/08/04 06:34:15;;;;;;;4.30;3.90;;;31.50;43.90;;;28.19;45.49;95517.63;4933670;29;20046;-46
2022/08/04 06:36:44;;;;;;;4.90;4.40;;;31.80;43.40;;;28.34;44.94;95513.03;4934514;29;20110;-48
2022/08/04 06:39:13;;;;;;;5.70;4.28;;;32.10;42.90;;;28.52;44.43;95515.94;4918124;29;20034;-46
2022/08/04 06:41:39;;;;;;;5.00;4.20;;;32.30;42.20;;;28.64;44.13;95512.06;4934898;29;20022;-49
2022/08/04 06:44:11;;;;;;;4.90;4.32;;;32.70;41.80;;;28.69;44.01;95517.97;4901078;29;20027;-48
2022/08/04 06:46:42;;;;;;;8.18;4.10;;;32.80;41.10;;;28.88;43.74;95518.84;4933232;29;20026;-48
2022/08/04 06:49:14;;;;;;;5.05;4.55;;;33.10;40.80;;;29.19;43.14;95515.50;4933557;29;20082;-48
2022/08/04 06:52:04;;;;;;;5.07;4.57;;;33.30;40.30;;;29.35;42.02;95520.63;4933910;29;20119;-45
2022/08/04 06:54:30;;;;;;;5.00;4.05;;;33.60;39.90;;;29.55;41.54;95518.31;4917738;29;20030;-46
2022/08/04 06:57:01;;;;;;;6.07;4.50;;;33.90;39.30;;;29.88;41.25;95514.50;4917026;29;20481;-49
2022/08/04 06:59:30;;;;;;;4.25;3.85;;;34.10;38.70;;;30.13;40.83;95519.22;4933072;29;20444;-48
2022/08/04 07:02:00;;;;;;;5.20;4.70;;;34.50;38.30;;;30.30;40.62;95518.44;4933121;29;20031;-49
2022/08/04 07:04:29;;;;;;;5.05;4.40;;;34.70;37.80;;;30.52;40.27;95518.41;4933198;29;20027;-49
2022/08/04 07:06:55;;;;;;;5.65;4.35;;;35.00;37.40;;;30.73;39.02;95518.38;4932894;29;20495;-49
2022/08/04 07:09:24;;;;;;;4.15;3.75;;;35.30;36.90;;;30.82;38.82;95520.72;4933059;29;20422;-47
2022/08/04 07:11:55;;;;;;;4.75;4.35;;;35.40;36.10;;;31.09;38.68;95519.06;4933140;29;20390;-49
2022/08/04 07:14:22;;;;;;;6.15;3.88;;;35.60;35.80;;;31.15;38.26;95518.63;4892364;29;20038;-47
2022/08/04 07:16:57;;;;;;;6.45;4.13;;;35.80;36.10;;;31.11;38.11;95516.69;4912131;29;20027;-48
2022/08/04 07:19:23;;;;;;;4.20;3.80;;;36.00;35.00;;;31.30;38.06;95520.94;4933088;29;20118;-50
2022/08/04 07:21:50;;;;;;;4.93;4.07;;;36.20;34.80;;;31.39;37.58;95523.28;4916970;29;20117;-51
2022/08/04 07:24:37;;;;;;;4.55;4.18;;;36.50;34.40;;;31.43;37.70;95518.53;4932927;29;20161;-48
2022/08/04 07:27:07;;;;;;;4.82;4.32;;;36.70;34.00;;;31.64;37.60;95523.13;4916932;29;20033;-49
2022/08/04 07:29:37;;;;;;;4.65;4.35;;;36.90;33.70;;;31.73;37.50;95522.69;4927041;29;20059;-48
2022/08/04 07:32:05;;;;;;;6.07;4.75;;;37.10;33.40;;;31.76;37.84;95522.66;4916898;29;20030;-51
2022/08/04 07:34:33;;;;;;;7.70;4.65;;;37.20;33.10;;;32.06;37.80;95520.50;4933816;29;20023;-51
2022/08/04 07:37:00;;;;;;;7.07;4.75;;;37.50;33.00;;;32.42;37.15;95519.03;4932729;29;20498;-46
2022/08/04 07:39:31;;;;;;;4.80;4.28;;;37.60;33.00;;;32.49;35.96;95524.50;4932563;29;20027;-48
2022/08/04 07:42:02;;;;;;;4.83;4.33;;;37.90;32.20;;;32.67;35.13;95510.53;4901415;29;20026;-49
2022/08/04 07:44:36;;;;;;;5.68;4.40;;;38.10;31.80;;;32.79;35.01;95520.28;4932140;29;20130;-50
2022/08/04 07:47:06;;;;;;;6.10;4.35;;;38.30;31.30;;;33.10;34.53;95526.63;4916262;29;20031;-49
2022/08/04 07:49:36;;;;;;;4.63;4.28;;;38.60;31.00;;;33.08;34.05;95514.44;4932565;29;20034;-47
2022/08/04 07:52:05;;;;;;;5.38;4.80;;;38.70;30.40;;;33.24;33.99;95522.13;4932514;29;20027;-47
2022/08/04 07:54:33;;;;;;;5.80;4.28;;;38.90;30.10;;;33.36;33.96;95516.84;4932506;29;20026;-46
2022/08/04 07:57:06;;;;;;;7.38;4.90;;;39.10;30.00;;;33.35;33.83;95515.28;4931649;29;20390;-50
2022/08/04 07:59:35;;;;;;;4.88;4.47;;;39.20;29.60;;;33.58;33.56;95517.38;4920714;29;20089;-53
2022/08/04 08:02:09;;;;;;;5.68;4.65;;;39.30;29.50;;;33.72;33.03;95513.63;4937149;28;20023;-51
2022/08/04 08:04:38;;;;;;;5.50;4.90;;;39.40;29.20;;;34.08;32.82;95518.63;4932243;29;20126;-50
2022/08/04 08:07:04;;;;;;;5.85;4.80;;;39.60;29.10;;;34.13;32.30;95520.13;4931866;29;20027;-49
2022/08/04 08:09:33;;;;;;;5.43;4.95;;;39.70;28.80;;;34.34;32.34;95519.00;4933381;29;20382;-48
2022/08/04 08:12:02;;;;;;;6.43;4.40;;;39.80;28.70;;;34.47;32.03;95523.50;4931810;29;20019;-48
2022/08/04 08:14:30;;;;;;;5.28;4.78;;;40.00;28.60;;;34.38;31.98;95523.28;4933327;29;20030;-49
2022/08/04 08:17:01;;;;;;;5.00;4.60;;;40.30;28.40;;;34.49;31.78;95512.78;4931677;29;20031;-49
2022/08/04 08:19:33;;;;;;;5.80;5.20;;;40.40;28.20;;;34.66;31.66;95515.69;4932120;29;20031;-48
2022/08/04 08:22:01;;;;;;;6.88;4.93;;;40.50;28.00;;;35.04;31.13;95518.97;4932992;29;20019;-51
2022/08/04 08:24:35;;;;;;;5.60;5.10;;;40.60;27.90;;;35.13;30.61;95518.38;4931820;29;20505;-47
2022/08/04 08:27:04;;;;;;;5.53;5.03;;;40.80;27.70;;;34.88;31.54;95516.88;4915148;29;20034;-47
2022/08/04 08:29:34;;;;;;;5.25;4.70;;;40.90;27.50;;;34.63;31.85;95517.34;4915718;29;20042;-47
2022/08/04 08:32:03;;;;;;;5.50;5.00;;;40.90;27.40;;;34.37;32.26;95520.91;4915720;29;20443;-51
2022/08/04 08:34:32;;;;;;;7.53;5.53;;;40.90;27.30;;;34.69;32.24;95517.59;4931706;29;20038;-51
2022/08/04 08:37:25;;;;;;;8.88;5.25;;;40.80;27.20;;;35.07;32.18;95522.84;4931323;29;20570;-48
2022/08/04 08:40:58;;;;;;;5.68;5.07;;;40.90;27.50;;;35.51;30.88;95517.97;4933071;29;20047;-47
2022/08/04 08:43:44;;;;;;;5.75;5.18;;;41.00;27.50;;;35.67;31.51;95516.06;4897318;29;20139;-51
2022/08/04 08:46:22;;;;;;;5.60;5.10;;;41.30;27.30;;;35.76;30.45;95518.25;4931021;29;20043;-50
2022/08/04 08:49:59;;;;;;;7.15;4.95;;;41.50;27.20;;;35.95;30.70;95519.41;4931779;29;20033;-47
2022/08/04 08:53:38;;;;;;;5.70;5.22;;;41.60;27.10;;;35.95;29.90;95518.59;4927762;29;20512;-47
2022/08/04 08:56:40;;;;;;;5.25;4.75;;;41.80;26.80;;;36.23;30.42;95517.16;4932450;29;20393;-47
2022/08/04 08:59:54;;;;;;;;;;;41.90;26.70;;;36.28;29.72;95517.41;4932472;29;20094;-51
2022/08/04 09:03:40;;;;;;;6.10;5.50;;;42.10;27.00;;;36.53;28.84;95518.81;4917579;29;20002;-51
2022/08/04 09:06:58;;;;;;;5.60;5.10;;;42.30;26.70;;;36.06;29.60;95516.38;4920098;29;20085;-53
2022/08/04 09:09:53;;;;;;;5.97;4.68;;;42.40;26.30;;;36.47;29.15;95512.97;4928626;29;20590;-53
2022/08/04 09:13:07;;;;;;;5.75;5.25;;;42.50;26.20;;;36.33;29.58;95521.69;4932786;29;20030;-50
2022/08/04 09:16:07;;;;;;;6.13;5.13;;;42.60;26.00;;;36.88;28.54;95524.63;4931427;29;20023;-52
2022/08/04 09:19:15;;;;;;;6.78;5.32;;;42.70;25.90;;;37.34;27.62;95519.81;4931971;29;20065;-50
2022/08/04 09:22:03;;;;;;;7.10;4.45;;;42.90;25.80;;;37.80;26.91;95512.88;4932780;29;20027;-52
2022/08/04 09:25:06;;;;;;;6.05;4.88;;;43.20;25.60;;;37.70;26.24;95523.09;4932293;29;20394;-51
2022/08/04 09:28:13;;;;;;;5.78;5.28;;;43.40;25.30;;;37.81;27.09;95517.22;4915355;29;20027;-51
2022/08/04 09:31:02;;;;;;;8.02;5.40;;;43.60;25.00;;;37.79;26.64;95514.09;4931365;29;20038;-51
2022/08/04 09:34:10;;;;;;;6.57;4.97;;;43.80;24.80;;;37.72;27.55;95523.44;4928638;29;20019;-49
2022/08/04 09:37:00;;;;;;;6.43;4.97;;;43.90;24.60;;;37.65;26.45;95518.09;4929439;29;20106;-49
2022/08/04 09:40:21;;;;;;;6.03;4.45;;;44.00;24.20;;;37.83;25.78;95513.97;4932107;29;20031;-48
2022/08/04 09:43:13;;;;;;;5.30;4.90;;;44.10;24.20;;;38.13;25.85;95513.44;4923656;29;20130;-52
2022/08/04 09:46:37;;;;;;;5.43;4.93;;;44.20;24.00;;;38.11;25.54;95515.09;4915233;29;20043;-48
2022/08/04 09:49:38;;;;;;;6.65;4.93;;;44.50;23.80;;;37.83;26.51;95516.75;4909592;29;20051;-53
2022/08/04 09:52:43;;;;;;;5.82;5.05;;;44.50;23.60;;;38.42;25.08;95512.50;4930856;29;20505;-47
2022/08/04 09:55:55;;;;;;;5.57;5.07;;;44.50;23.60;;;38.46;24.97;95502.06;4908242;29;20410;-48
2022/08/04 09:58:45;;;;;;;;;;;44.60;23.40;;;38.62;24.56;95510.25;4915779;29;20035;-48
2022/08/04 10:01:23;;;;;;;6.47;4.53;;;44.70;23.60;;;38.92;23.82;95501.69;4915405;29;20457;-51
2022/08/04 10:03:59;;;;;;;5.72;4.95;;;44.90;23.50;;;38.96;24.16;95500.34;4915028;29;20040;-48
2022/08/04 10:07:08;;;;;;;6.38;5.00;;;44.90;22.80;;;39.02;24.40;95501.31;4915948;29;20030;-50
2022/08/04 10:09:58;;;;;;;8.50;4.97;;;45.10;22.80;;;39.55;23.84;95495.78;4914923;29;20028;-47
2022/08/04 10:13:02;;;;;;;5.93;4.80;;;45.20;22.70;;;40.07;23.04;95493.34;4930553;29;20026;-50
2022/08/04 10:15:48;;;;;;;5.10;4.70;;;45.40;22.70;;;40.11;22.19;95496.00;4898020;29;20031;-51
2022/08/04 10:18:34;;;;;;;5.60;5.10;;;45.80;22.30;;;39.88;22.90;95495.31;4913769;29;20547;-50
2022/08/04 10:21:45;;;;;;;4.82;4.43;;;45.90;22.00;;;39.62;21.69;95494.72;4905511;29;20036;-50
2022/08/04 10:24:37;;;;;;;8.38;5.25;;;46.10;21.80;;;39.83;22.40;95486.78;4916577;29;20170;-48
2022/08/04 10:27:27;;;;;;;6.00;5.13;;;46.10;21.60;;;40.32;22.20;95488.78;4917904;29;20555;-48
2022/08/04 10:30:10;;;;;;;5.35;4.50;;;46.30;21.70;;;40.06;21.84;95485.47;4914906;29;20031;-49
2022/08/04 10:33:06;;;;;;;5.22;4.82;;;46.40;21.30;;;40.64;22.16;95482.66;4929801;29;20016;-52
2022/08/04 10:35:50;;;;;;;5.00;4.32;;;46.50;21.30;;;40.79;20.67;95471.63;4916060;29;20046;-52
2022/08/04 10:38:45;;;;;;;4.88;4.25;;;46.70;21.00;;;40.76;19.46;95469.78;4886055;29;21959;-54
2022/08/04 10:41:54;;;;;;;4.10;3.65;;;46.90;20.40;;;40.86;18.74;95474.09;4914834;29;20038;-48
2022/08/04 10:44:59;;;;;;;4.65;4.25;;;46.90;19.70;;;41.24;19.14;95472.84;4919442;29;20050;-53
2022/08/04 10:47:44;;;;;;;4.50;4.10;;;47.10;19.90;;;41.44;18.00;95468.78;4933059;29;20030;-51
2022/08/04 10:50:14;;;;;;;4.13;3.83;;;47.20;19.50;;;41.66;18.56;95471.34;4933002;29;20031;-47
2022/08/04 10:53:24;;;;;;;6.17;4.53;;;47.40;19.50;;;41.66;19.57;95458.16;4933482;29;20070;-47
2022/08/04 10:56:30;;;;;;;4.53;4.22;;;47.60;19.60;;;41.95;18.60;95454.78;4873453;29;20324;-52
2022/08/04 10:59:32;;;;;;;5.15;4.75;;;47.70;19.30;;;42.30;18.81;95457.06;4909924;29;20062;-49
2022/08/04 11:02:58;;;;;;;4.85;4.55;;;48.10;19.30;;;42.19;18.39;95459.63;4933651;29;20037;-50
2022/08/04 11:05:58;;;;;;;5.15;4.20;;;48.30;19.20;;;41.83;17.56;95461.31;4924442;29;20082;-49
2022/08/04 11:08:37;;;;;;;4.50;4.10;;;48.40;19.00;;;41.80;16.30;95454.66;4933156;29;20030;-51
2022/08/04 11:11:50;;;;;;;4.68;4.28;;;48.30;18.20;;;41.98;17.02;95453.06;4932961;29;20062;-47
2022/08/04 11:14:51;;;;;;;4.30;4.00;;;48.40;18.20;;;42.34;16.21;95449.28;4933739;29;20102;-50
2022/08/04 11:17:40;;;;;;;4.60;4.10;;;48.50;18.00;;;42.45;16.44;95452.28;4933042;29;20023;-50
2022/08/04 11:21:06;;;;;;;4.38;4.07;;;48.50;17.70;;;42.67;15.69;95442.81;4918145;29;20023;-53
2022/08/04 11:23:52;;;;;;;3.90;3.70;;;48.60;17.50;;;42.52;15.74;95442.75;4836278;29;20055;-52
2022/08/04 11:27:02;;;;;;;3.40;3.20;;;48.80;17.30;;;42.92;14.12;95435.91;4911435;29;20063;-48
2022/08/04 11:30:12;;;;;;;5.32;4.05;;;49.00;17.00;;;42.93;14.89;95446.63;4908783;29;20049;-54
2022/08/04 11:33:31;;;;;;;4.30;4.10;;;49.20;17.00;;;42.73;14.61;95447.28;4915574;29;20035;-50
2022/08/04 11:36:28;;;;;;;4.35;4.00;;;49.30;16.60;;;42.88;15.63;95444.50;4919801;29;20047;-51
2022/08/04 11:39:41;;;;;;;4.68;4.18;;;49.40;16.60;;;42.98;16.36;95443.16;4932610;29;20030;-52
2022/08/04 11:42:40;;;;;;;4.95;4.50;;;49.40;16.80;;;42.67;15.77;95448.41;4932357;29;20050;-51
2022/08/04 11:45:44;;;;;;;5.60;5.20;;;49.50;16.80;;;41.77;16.81;95452.81;4928460;29;20039;-49
2022/08/04 11:48:24;;;;;;;4.57;4.28;;;49.40;16.70;;;42.23;16.26;95435.03;4932063;29;20059;-47
2022/08/04 11:50:55;;;;;;;4.50;4.20;;;49.20;16.60;;;42.34;16.40;95440.09;4932352;29;20498;-48
2022/08/04 11:53:30;;;;;;;4.28;3.95;;;49.20;16.70;;;42.93;16.39;95435.41;4932576;29;20031;-48
2022/08/04 11:56:08;;;;;;;5.18;4.18;;;49.20;16.80;;;43.16;16.08;95436.63;4932135;29;20836;-47
2022/08/04 11:58:35;;;;;;;5.20;4.90;;;49.50;16.70;;;43.40;16.25;95441.34;4914689;29;20030;-49
2022/08/04 12:01:46;;;;;;;4.43;4.22;;;49.60;16.80;;;43.27;15.66;95436.03;4930006;29;20131;-52
2022/08/04 12:04:25;;;;;;;4.35;4.15;;;49.80;16.80;;;43.01;16.05;95432.25;4920896;29;20035;-51
2022/08/04 12:07:10;;;;;;;5.63;5.13;;;49.90;16.60;;;43.27;16.48;95438.84;4932339;29;20031;-49